首页
METAR-TAF:

METAR-TAF

机场 :

本-古里安国际机场

特拉维夫 / 本·古里安, 以色列

纬度: 32-00N, 经度: 034-54E, 海拔: 40米

当前天气观测

该预报发布于17分钟前的11:20 UTC
风速13节,风向南转西南
温度 24°C
湿度 22%
气压 1009 hPa
能见度10公里或以上
1500米以下无云,无积雨云

METAR: LLBG 241120Z 21013KT CAVOK 24/01 Q1009 NOSIG RMK FEW140

时间: 13:37 (11:37 UTC)

预报

该预报发布于6小时和27分钟前的05:10 UTC
预报有效从24日的 06点(UTC)到 25日的 06点(UTC)
风速5节,风向东南
能见度10公里或以上
1500米以下无云,无积雨云
成为
从 24日的 08点(UTC)到 24日的 10点(UTC)
风速10节,风向西南
能見度: 6000
几率 30%
从 24日的 11点(UTC)到 24日的 15点(UTC)
风速20节,风向西转西南
能見度: 3000
浮尘
成为
从 24日的 15点(UTC)到 24日的 17点(UTC)
风速3节,风向多变
能見度: 8000
少量云层高于2500英尺

TAF: LLBG 240510Z 2406/2506 13005KT CAVOK BECMG 2408/2410 22010KT 6000 NSC PROB30 2411/2415 25020KT 3000 DU BECMG 2415/2417 VRB03KT 8000 FEW025 TX24/2411Z TN08/2504Z

超过4000个机场的气象观测和天气预报(METAR&TAF报告)。

可查询的气象台以黄色和红色小点在地图上表示。

将鼠标移到小点上方,可查看气象台名称。

然后点击查看天气观测和预报。

如需切换地图:点击带黑十字的绿色按钮放大地图;点击带横线的绿色按钮缩小地图;或者点击绿色箭头查看邻近地区的地图。


METAR-TAF: